createdAt,value
2022-09-22T00:00:57.663Z,5.33
2022-09-22T00:03:24.556Z,7.40
2022-09-22T00:05:58.056Z,6.90
2022-09-22T00:08:24.649Z,6.17
2022-09-22T00:10:58.738Z,7.27
2022-09-22T00:13:25.313Z,7.37
2022-09-22T00:15:51.999Z,7.23
2022-09-22T00:18:18.583Z,6.07
2022-09-22T00:20:45.176Z,6.20
2022-09-22T00:23:11.761Z,5.77
2022-09-22T00:25:41.509Z,5.70
2022-09-22T00:28:08.080Z,6.33
2022-09-22T00:30:34.714Z,3.50
2022-09-22T00:33:01.276Z,5.40
2022-09-22T00:35:27.842Z,4.60
2022-09-22T00:37:54.428Z,7.43
2022-09-22T00:40:21.151Z,7.17
2022-09-22T00:42:47.763Z,4.40
2022-09-22T00:45:14.513Z,7.50
2022-09-22T00:47:43.417Z,5.90
2022-09-22T00:50:16.541Z,5.93
2022-09-22T00:52:43.100Z,4.30
2022-09-22T00:55:32.736Z,7.07
2022-09-22T00:57:59.911Z,5.30
2022-09-22T01:00:26.530Z,5.47
2022-09-22T01:02:55.754Z,10.57
2022-09-22T01:05:24.608Z,4.97
2022-09-22T01:07:51.455Z,7.13
2022-09-22T01:10:18.158Z,5.77
2022-09-22T01:12:48.481Z,5.27
2022-09-22T01:15:23.831Z,5.27
2022-09-22T01:17:50.351Z,5.90
2022-09-22T01:20:35.772Z,4.80
2022-09-22T01:23:20.964Z,7.70
2022-09-22T01:25:50.540Z,5.07
2022-09-22T01:28:28.264Z,5.50
2022-09-22T01:31:05.478Z,7.17
2022-09-22T01:33:50.401Z,5.47
2022-09-22T01:36:17.046Z,6.03
2022-09-22T01:39:02.473Z,4.73
2022-09-22T01:41:40.098Z,4.77
2022-09-22T01:44:13.669Z,5.17
2022-09-22T01:46:46.937Z,4.77
2022-09-22T01:49:33.607Z,4.03
2022-09-22T01:52:02.868Z,5.07
2022-09-22T01:54:32.051Z,5.30
2022-09-22T01:57:04.607Z,5.10
2022-09-22T01:59:34.600Z,4.77
2022-09-22T02:02:03.815Z,5.10
2022-09-22T02:04:33.189Z,4.27
2022-09-22T02:07:01.283Z,4.40
2022-09-22T02:09:30.797Z,4.17
2022-09-22T02:11:58.364Z,6.63
2022-09-22T02:14:25.526Z,4.17
2022-09-22T02:16:52.977Z,4.10
2022-09-22T02:19:45.542Z,4.90
2022-09-22T02:22:12.671Z,5.60
2022-09-22T02:24:41.564Z,3.40
2022-09-22T02:27:25.692Z,3.50
2022-09-22T02:29:58.278Z,4.57
2022-09-22T02:32:25.785Z,6.37
2022-09-22T02:34:53.464Z,7.73
2022-09-22T02:37:28.441Z,4.63
2022-09-22T02:39:55.164Z,2.90
2022-09-22T02:42:31.197Z,7.30
2022-09-22T02:45:00.828Z,5.60
2022-09-22T02:47:32.676Z,3.57
2022-09-22T02:50:00.142Z,4.17
2022-09-22T02:52:26.739Z,3.80
2022-09-22T02:54:53.913Z,3.03
2022-09-22T02:57:20.976Z,5.53
2022-09-22T02:59:47.594Z,3.87
2022-09-22T03:02:14.490Z,3.80
2022-09-22T03:04:41.101Z,4.60
2022-09-22T03:07:07.705Z,6.27
2022-09-22T03:09:34.415Z,3.40
2022-09-22T03:12:01.087Z,3.50
2022-09-22T03:14:27.711Z,4.17
2022-09-22T03:16:54.282Z,4.23
2022-09-22T03:19:20.865Z,4.00
2022-09-22T03:21:47.447Z,5.60
2022-09-22T03:24:14.016Z,4.97
2022-09-22T03:26:40.620Z,3.10
2022-09-22T03:29:07.190Z,5.27
2022-09-22T03:31:33.910Z,3.37
2022-09-22T03:34:00.536Z,5.43
2022-09-22T03:36:27.222Z,7.73
2022-09-22T03:38:53.784Z,3.13
2022-09-22T03:41:20.482Z,9.73
2022-09-22T03:43:47.081Z,3.90
2022-09-22T03:46:14.421Z,3.47
2022-09-22T03:48:44.902Z,2.90
2022-09-22T03:51:12.176Z,3.90
2022-09-22T03:53:39.057Z,3.93
2022-09-22T03:56:10.304Z,6.27
2022-09-22T03:58:37.394Z,4.03
2022-09-22T04:01:05.132Z,3.53
2022-09-22T04:03:31.962Z,5.27
2022-09-22T04:05:58.573Z,5.33
2022-09-22T04:08:25.170Z,3.23
2022-09-22T04:10:51.960Z,4.23
2022-09-22T04:13:18.844Z,5.77
2022-09-22T04:15:46.312Z,5.60
2022-09-22T04:18:13.852Z,3.77
2022-09-22T04:20:44.004Z,2.90
2022-09-22T04:23:14.749Z,3.67
2022-09-22T04:25:41.430Z,3.77
2022-09-22T04:28:08.108Z,5.13
2022-09-22T04:30:35.195Z,3.60
2022-09-22T04:33:01.953Z,4.97
2022-09-22T04:35:29.076Z,7.70
2022-09-22T04:37:56.415Z,3.80
2022-09-22T04:40:23.309Z,3.47
2022-09-22T04:42:50.020Z,4.77
2022-09-22T04:45:16.744Z,4.50
2022-09-22T04:47:47.096Z,3.53
2022-09-22T04:50:13.926Z,4.37
2022-09-22T04:52:40.526Z,6.70
2022-09-22T04:55:07.820Z,5.80
2022-09-22T04:57:34.417Z,4.63
2022-09-22T05:00:01.055Z,6.77
2022-09-22T05:02:27.664Z,7.80
2022-09-22T05:04:54.263Z,4.87
2022-09-22T05:07:20.868Z,6.87
2022-09-22T05:09:48.028Z,4.87
2022-09-22T05:12:14.698Z,3.57
2022-09-22T05:14:42.317Z,5.30
2022-09-22T05:17:09.412Z,7.97
2022-09-22T05:19:36.124Z,5.80
2022-09-22T05:22:02.706Z,6.67
2022-09-22T05:24:30.018Z,6.23
2022-09-22T05:26:56.587Z,4.97
2022-09-22T05:29:27.208Z,7.87
2022-09-22T05:31:54.532Z,5.77
2022-09-22T05:34:21.110Z,4.17
2022-09-22T05:36:47.697Z,6.60
2022-09-22T05:39:14.222Z,3.80
2022-09-22T05:41:40.796Z,7.07
2022-09-22T05:44:07.357Z,5.83
2022-09-22T05:46:33.976Z,6.80
2022-09-22T05:49:00.610Z,6.10
2022-09-22T05:51:27.245Z,5.20
2022-09-22T05:53:53.867Z,4.70
2022-09-22T05:56:20.623Z,4.67
2022-09-22T05:58:47.525Z,6.40
2022-09-22T06:01:14.522Z,5.73
2022-09-22T06:03:41.220Z,6.40
2022-09-22T06:06:07.826Z,7.27
2022-09-22T06:08:34.407Z,10.47
2022-09-22T06:11:01.129Z,15.07
2022-09-22T06:13:27.645Z,14.53
2022-09-22T06:15:54.225Z,16.47
2022-09-22T06:18:24.876Z,24.60
2022-09-22T06:20:52.300Z,14.23
2022-09-22T06:23:19.189Z,18.03
2022-09-22T06:25:45.756Z,13.40
2022-09-22T06:28:14.610Z,12.97
2022-09-22T06:30:41.641Z,14.83
2022-09-22T06:33:08.939Z,8.53
2022-09-22T06:35:38.119Z,7.87
2022-09-22T06:38:07.975Z,7.93
2022-09-22T06:40:38.000Z,8.57
2022-09-22T06:43:11.846Z,10.17
2022-09-22T06:45:46.356Z,12.23
2022-09-22T06:48:14.319Z,6.57
2022-09-22T06:50:41.324Z,9.43
2022-09-22T06:53:12.968Z,8.27
2022-09-22T06:55:44.243Z,5.67
2022-09-22T06:58:14.082Z,7.53
2022-09-22T07:00:49.966Z,9.10
2022-09-22T07:03:22.226Z,5.77
2022-09-22T07:06:02.762Z,9.57
2022-09-22T07:08:34.147Z,7.10
2022-09-22T07:11:25.047Z,7.80
2022-09-22T07:14:00.471Z,4.20
2022-09-22T07:16:31.352Z,3.33
2022-09-22T07:19:02.622Z,4.00
2022-09-22T07:21:51.184Z,2.73
2022-09-22T07:24:25.812Z,3.53
2022-09-22T07:26:55.766Z,1.90
2022-09-22T07:29:25.635Z,2.30
2022-09-22T07:31:58.843Z,1.50
2022-09-22T07:34:29.544Z,3.00
2022-09-22T07:37:00.621Z,2.33
2022-09-22T07:39:29.174Z,3.13
2022-09-22T07:41:57.908Z,2.03
2022-09-22T07:44:44.774Z,1.90
2022-09-22T07:47:13.227Z,2.37
2022-09-22T07:49:41.384Z,2.47
2022-09-22T07:52:10.022Z,1.90
2022-09-22T07:54:37.431Z,1.87
2022-09-22T07:57:07.386Z,2.70
2022-09-22T07:59:35.978Z,1.57
2022-09-22T08:02:02.685Z,1.50
2022-09-22T08:04:32.303Z,2.70
2022-09-22T08:07:00.528Z,1.33
2022-09-22T08:09:31.828Z,2.87
2022-09-22T08:11:59.360Z,2.37
2022-09-22T08:14:26.452Z,1.60
2022-09-22T08:16:53.973Z,1.10
2022-09-22T08:19:36.156Z,1.90
2022-09-22T08:22:06.947Z,1.80
2022-09-22T08:24:34.726Z,1.60
2022-09-22T08:27:01.280Z,2.13
2022-09-22T08:29:28.015Z,2.00
2022-09-22T08:31:54.755Z,3.57
2022-09-22T08:34:22.545Z,3.07
2022-09-22T08:36:49.315Z,3.97
2022-09-22T08:39:17.007Z,4.60
2022-09-22T08:42:08.004Z,3.10
2022-09-22T08:44:37.510Z,2.00
2022-09-22T08:47:04.667Z,3.17
2022-09-22T08:50:02.828Z,2.87
2022-09-22T08:52:32.590Z,6.93
2022-09-22T08:55:01.480Z,3.13
2022-09-22T08:57:36.589Z,4.13
2022-09-22T09:00:06.732Z,2.53
2022-09-22T09:02:45.793Z,2.23
2022-09-22T09:05:35.608Z,1.80
2022-09-22T09:08:16.774Z,4.40
2022-09-22T09:10:56.707Z,2.60
2022-09-22T09:13:46.363Z,3.97
2022-09-22T09:16:35.677Z,3.87
2022-09-22T09:19:24.161Z,5.77
2022-09-22T09:22:06.619Z,7.70
2022-09-22T09:27:35.105Z,6.23
2022-09-22T09:30:05.576Z,4.60
2022-09-22T09:32:49.154Z,5.63
2022-09-22T09:35:24.475Z,3.63
2022-09-22T09:38:01.647Z,3.80
2022-09-22T09:40:34.251Z,3.63
2022-09-22T09:43:04.618Z,2.67
2022-09-22T09:45:37.138Z,5.93
2022-09-22T09:48:18.778Z,3.97
2022-09-22T09:50:47.260Z,2.13
2022-09-22T09:53:22.345Z,2.13
2022-09-22T09:55:54.781Z,1.60
2022-09-22T09:58:41.700Z,1.47
2022-09-22T10:01:16.336Z,1.07
2022-09-22T10:03:55.854Z,1.27
2022-09-22T10:06:27.119Z,1.50
2022-09-22T10:08:55.207Z,1.40
2022-09-22T10:11:33.253Z,2.07
2022-09-22T10:14:00.866Z,3.00
2022-09-22T10:16:30.932Z,2.87
2022-09-22T10:19:03.780Z,2.70
2022-09-22T10:21:34.468Z,1.40
2022-09-22T10:24:01.238Z,3.60
2022-09-22T10:26:30.301Z,4.83
2022-09-22T10:29:12.496Z,2.33
2022-09-22T10:31:41.894Z,1.50
2022-09-22T10:34:27.573Z,3.47
2022-09-22T10:36:54.402Z,2.40
2022-09-22T10:39:22.505Z,1.30
2022-09-22T10:41:49.196Z,4.20
2022-09-22T10:44:38.030Z,1.87
2022-09-22T10:47:09.229Z,2.93
2022-09-22T10:49:44.745Z,1.40
2022-09-22T10:52:14.158Z,1.37
2022-09-22T10:54:54.752Z,1.50
2022-09-22T10:57:28.212Z,2.00
2022-09-22T10:59:57.932Z,2.63
2022-09-22T11:02:40.427Z,1.20
2022-09-22T11:05:12.793Z,1.93
2022-09-22T11:08:09.185Z,3.03
2022-09-22T11:11:00.597Z,2.43
2022-09-22T11:13:30.133Z,0.80
2022-09-22T11:15:59.593Z,1.33
2022-09-22T11:18:45.207Z,2.43
2022-09-22T11:21:41.148Z,1.47
2022-09-22T11:24:15.264Z,0.70
2022-09-22T11:26:44.847Z,1.37
2022-09-22T11:29:46.706Z,0.80
2022-09-22T11:32:16.158Z,1.30
2022-09-22T11:34:43.147Z,1.73
2022-09-22T11:37:25.806Z,0.80
2022-09-22T11:40:04.569Z,1.23
2022-09-22T11:42:37.366Z,0.90
2022-09-22T11:45:22.796Z,1.10
2022-09-22T11:47:58.573Z,1.17
2022-09-22T11:50:34.678Z,0.70
2022-09-22T11:53:04.925Z,1.53
2022-09-22T11:55:44.812Z,1.70
2022-09-22T11:58:15.604Z,0.90
2022-09-22T12:00:54.780Z,1.43
2022-09-22T12:03:25.385Z,1.67
2022-09-22T12:05:58.521Z,0.77
2022-09-22T12:08:28.258Z,1.07
2022-09-22T12:10:55.338Z,1.37
2022-09-22T12:13:26.577Z,1.53
2022-09-22T12:15:56.239Z,1.03
2022-09-22T12:18:28.620Z,1.07
2022-09-22T12:20:58.235Z,1.20
2022-09-22T12:23:31.002Z,1.27
2022-09-22T12:26:00.683Z,1.10
2022-09-22T12:28:29.185Z,0.80
2022-09-22T12:31:02.568Z,1.87
2022-09-22T12:33:29.771Z,1.80
2022-09-22T12:35:56.900Z,1.03
2022-09-22T12:38:24.038Z,1.10
2022-09-22T12:40:52.448Z,0.90
2022-09-22T12:43:21.308Z,5.10
2022-09-22T12:45:48.505Z,1.33
2022-09-22T12:48:22.272Z,1.53
2022-09-22T12:50:49.346Z,2.70
2022-09-22T12:53:22.056Z,0.87
2022-09-22T12:55:55.235Z,2.57
2022-09-22T12:58:22.358Z,2.77
2022-09-22T13:00:50.537Z,1.27
2022-09-22T13:03:26.094Z,1.43
2022-09-22T13:05:55.869Z,1.37
2022-09-22T13:08:24.277Z,3.17
2022-09-22T13:10:52.556Z,2.60
2022-09-22T13:13:22.294Z,1.73
2022-09-22T13:15:51.962Z,2.47
2022-09-22T13:18:38.949Z,1.13
2022-09-22T13:21:14.780Z,1.07
2022-09-22T13:23:57.761Z,1.10
2022-09-22T13:26:25.647Z,2.87
2022-09-22T13:29:01.247Z,1.80
2022-09-22T13:31:27.844Z,1.53
2022-09-22T13:33:54.656Z,1.60
2022-09-22T13:36:23.937Z,2.47
2022-09-22T13:38:54.536Z,1.20
2022-09-22T13:41:24.130Z,2.77
2022-09-22T13:43:58.603Z,1.03
2022-09-22T13:46:28.822Z,1.23
2022-09-22T13:48:56.624Z,1.47
2022-09-22T13:51:25.061Z,1.30
2022-09-22T13:53:53.048Z,1.50
2022-09-22T13:56:21.928Z,1.23
2022-09-22T13:58:50.137Z,0.87
2022-09-22T14:01:21.204Z,1.37
2022-09-22T14:03:48.553Z,1.73
2022-09-22T14:06:23.000Z,1.40
2022-09-22T14:08:50.353Z,1.20
2022-09-22T14:11:18.486Z,2.57
2022-09-22T14:13:54.540Z,1.87
2022-09-22T14:16:41.685Z,1.13
2022-09-22T14:19:14.464Z,1.40
2022-09-22T14:22:00.605Z,1.00
2022-09-22T14:24:27.800Z,2.77
2022-09-22T14:27:00.253Z,1.80
2022-09-22T14:29:31.709Z,0.93
2022-09-22T14:32:12.011Z,1.60
2022-09-22T14:34:40.034Z,2.93
2022-09-22T14:37:21.743Z,1.20
2022-09-22T14:39:50.822Z,3.30
2022-09-22T14:42:25.978Z,1.87
2022-09-22T14:44:53.752Z,2.70
2022-09-22T14:47:20.602Z,1.83
2022-09-22T14:49:48.363Z,1.13
2022-09-22T14:52:27.994Z,1.10
2022-09-22T14:54:56.044Z,1.40
2022-09-22T14:57:23.051Z,1.17
2022-09-22T15:00:12.142Z,1.20
2022-09-22T15:02:41.579Z,2.03
2022-09-22T15:05:09.310Z,1.20
2022-09-22T15:07:46.403Z,1.17
2022-09-22T15:10:21.224Z,1.43
2022-09-22T15:12:49.709Z,0.87
2022-09-22T15:15:19.717Z,1.87
2022-09-22T15:18:06.179Z,2.03
2022-09-22T15:20:45.093Z,2.10
2022-09-22T15:23:16.834Z,1.40
2022-09-22T15:25:43.904Z,3.07
2022-09-22T15:28:15.135Z,1.70
2022-09-22T15:30:42.556Z,1.47
2022-09-22T15:33:11.892Z,1.47
2022-09-22T15:35:38.527Z,1.47
2022-09-22T15:38:12.364Z,1.03
2022-09-22T15:40:38.988Z,3.30
2022-09-22T15:43:13.002Z,1.57
2022-09-22T15:45:49.350Z,2.20
2022-09-22T15:48:23.956Z,1.40
2022-09-22T15:50:51.344Z,3.63
2022-09-22T15:53:18.137Z,1.60
2022-09-22T15:55:44.839Z,2.47
2022-09-22T15:58:13.639Z,2.60
2022-09-22T16:00:40.420Z,3.40
2022-09-22T16:03:14.178Z,2.57
2022-09-22T16:05:41.000Z,1.57
2022-09-22T16:08:09.195Z,1.10
2022-09-22T16:10:35.976Z,1.00
2022-09-22T16:13:03.778Z,3.57
2022-09-22T16:15:32.218Z,2.47
2022-09-22T16:17:59.407Z,1.10
2022-09-22T16:20:26.174Z,1.30
2022-09-22T16:22:52.756Z,1.00
2022-09-22T16:25:20.715Z,2.27
2022-09-22T16:27:47.519Z,2.07
2022-09-22T16:30:14.346Z,1.57
2022-09-22T16:32:41.377Z,1.60
2022-09-22T16:35:08.363Z,1.33
2022-09-22T16:37:35.071Z,3.13
2022-09-22T16:40:01.961Z,2.10
2022-09-22T16:42:28.725Z,2.13
2022-09-22T16:44:55.488Z,2.43
2022-09-22T16:47:22.772Z,4.57
2022-09-22T16:49:51.411Z,2.67
2022-09-22T16:52:22.552Z,3.27
2022-09-22T16:54:49.174Z,6.07
2022-09-22T16:57:15.891Z,2.13
2022-09-22T16:59:42.507Z,4.63
2022-09-22T17:02:10.507Z,1.83
2022-09-22T17:04:37.233Z,4.47
2022-09-22T17:07:03.891Z,2.97
2022-09-22T17:09:32.291Z,2.67
2022-09-22T17:11:58.911Z,3.07
2022-09-22T17:14:27.849Z,2.37
2022-09-22T17:16:55.445Z,3.50
2022-09-22T17:19:23.416Z,7.23
2022-09-22T17:21:55.379Z,4.83
2022-09-22T17:24:23.233Z,6.33
2022-09-22T17:26:54.571Z,4.97
2022-09-22T17:29:25.156Z,4.47
2022-09-22T17:31:53.297Z,5.33
2022-09-22T17:34:19.880Z,5.30
2022-09-22T17:36:46.580Z,3.63
2022-09-22T17:39:13.514Z,3.20
2022-09-22T17:41:45.562Z,5.57
2022-09-22T17:44:12.777Z,3.60
2022-09-22T17:47:02.813Z,4.90
2022-09-22T17:49:48.880Z,5.13
2022-09-22T17:52:34.817Z,3.60
2022-09-22T17:55:08.267Z,4.93
2022-09-22T17:57:39.004Z,3.43
2022-09-22T18:00:06.970Z,3.90
2022-09-22T18:02:37.163Z,2.90
2022-09-22T18:05:11.149Z,6.10
2022-09-22T18:07:40.219Z,3.63
2022-09-22T18:10:07.964Z,3.33
2022-09-22T18:12:34.549Z,3.73
2022-09-22T18:15:03.463Z,4.97
2022-09-22T18:17:32.187Z,5.33
2022-09-22T18:19:59.359Z,8.13
2022-09-22T18:22:26.778Z,3.40
2022-09-22T18:24:56.829Z,4.67
2022-09-22T18:27:29.878Z,3.87
2022-09-22T18:29:59.661Z,3.00
2022-09-22T18:32:27.029Z,6.17
2022-09-22T18:34:54.338Z,5.43
2022-09-22T18:37:21.573Z,4.20
2022-09-22T18:39:50.618Z,4.20
2022-09-22T18:42:22.583Z,4.23
2022-09-22T18:44:49.151Z,5.80
2022-09-22T18:47:18.575Z,5.43
2022-09-22T18:49:48.166Z,2.93
2022-09-22T18:52:16.299Z,6.30
2022-09-22T18:54:43.913Z,3.10
2022-09-22T18:57:13.240Z,3.13
2022-09-22T18:59:40.168Z,6.00
2022-09-22T19:02:11.268Z,6.77
2022-09-22T19:04:38.953Z,4.40
2022-09-22T19:07:24.304Z,4.30
2022-09-22T19:09:52.495Z,7.43
2022-09-22T19:12:21.762Z,6.67
2022-09-22T19:14:57.152Z,4.67
2022-09-22T19:17:24.662Z,5.23
2022-09-22T19:19:51.590Z,4.53
2022-09-22T19:22:18.328Z,3.50
2022-09-22T19:24:46.541Z,3.73
2022-09-22T19:27:15.484Z,3.60
2022-09-22T19:29:42.348Z,4.90
2022-09-22T19:32:09.571Z,4.13
2022-09-22T19:34:36.238Z,3.77
2022-09-22T19:37:03.317Z,5.10
2022-09-22T19:39:32.249Z,5.23
2022-09-22T19:41:59.237Z,3.97
2022-09-22T19:44:27.200Z,3.20
2022-09-22T19:46:53.816Z,4.20
2022-09-22T19:49:21.804Z,4.27
2022-09-22T19:51:48.388Z,3.63
2022-09-22T19:54:15.088Z,3.03
2022-09-22T19:56:41.980Z,3.40
2022-09-22T19:59:08.601Z,2.73
2022-09-22T20:01:40.337Z,5.00
2022-09-22T20:04:10.192Z,3.27
2022-09-22T20:06:37.194Z,2.60
2022-09-22T20:09:03.874Z,3.57
2022-09-22T20:11:34.752Z,3.17
2022-09-22T20:14:20.148Z,3.67
2022-09-22T20:16:47.605Z,2.33
2022-09-22T20:19:14.230Z,2.53
2022-09-22T20:21:43.314Z,3.37
2022-09-22T20:24:11.469Z,4.23
2022-09-22T20:26:38.024Z,3.10
2022-09-22T20:29:04.612Z,2.43
2022-09-22T20:31:31.351Z,3.53
2022-09-22T20:33:58.071Z,5.83
2022-09-22T20:36:24.904Z,5.20
2022-09-22T20:38:54.557Z,5.07
2022-09-22T20:41:22.279Z,3.93
2022-09-22T20:43:49.314Z,3.30
2022-09-22T20:46:16.555Z,3.03
2022-09-22T20:48:43.134Z,3.83
2022-09-22T20:51:09.689Z,3.27
2022-09-22T20:53:36.758Z,2.60
2022-09-22T20:56:10.616Z,2.70
2022-09-22T20:58:45.067Z,2.57
2022-09-22T21:01:13.862Z,3.30
2022-09-22T21:03:41.148Z,3.63
2022-09-22T21:06:08.876Z,2.73
2022-09-22T21:08:59.692Z,3.03
2022-09-22T21:11:26.682Z,2.20
2022-09-22T21:13:56.599Z,2.37
2022-09-22T21:16:23.238Z,2.97
2022-09-22T21:18:51.910Z,3.87
2022-09-22T21:21:19.800Z,3.10
2022-09-22T21:23:47.804Z,3.87
2022-09-22T21:26:15.423Z,2.27
2022-09-22T21:28:42.526Z,2.10
2022-09-22T21:31:10.487Z,2.53
2022-09-22T21:33:40.192Z,3.10
2022-09-22T21:36:11.405Z,2.90
2022-09-22T21:38:38.043Z,2.93
2022-09-22T21:41:05.885Z,2.20
2022-09-22T21:43:33.029Z,4.70
2022-09-22T21:46:05.039Z,1.93
2022-09-22T21:48:33.284Z,2.97
2022-09-22T21:51:02.220Z,1.87
2022-09-22T21:53:29.425Z,1.97
2022-09-22T21:56:03.794Z,2.80
2022-09-22T21:58:31.974Z,2.40
2022-09-22T22:00:59.070Z,1.83
2022-09-22T22:03:31.579Z,2.03
2022-09-22T22:06:02.037Z,1.77
2022-09-22T22:08:28.767Z,1.87
2022-09-22T22:11:07.073Z,3.60
2022-09-22T22:13:38.704Z,2.77
2022-09-22T22:16:08.066Z,2.70
2022-09-22T22:18:35.741Z,1.93
2022-09-22T22:21:25.412Z,2.37
2022-09-22T22:23:53.300Z,3.07
2022-09-22T22:26:21.311Z,2.77
2022-09-22T22:28:48.600Z,2.77
2022-09-22T22:31:16.326Z,1.77
2022-09-22T22:33:43.682Z,4.03
2022-09-22T22:36:11.272Z,2.27
2022-09-22T22:38:38.972Z,2.10
2022-09-22T22:41:07.051Z,3.03
2022-09-22T22:43:33.956Z,2.13
2022-09-22T22:46:01.030Z,2.97
2022-09-22T22:48:28.266Z,2.13
2022-09-22T22:50:55.237Z,2.37
2022-09-22T22:53:21.943Z,2.53
2022-09-22T22:56:01.329Z,1.80
2022-09-22T22:58:29.262Z,1.80
2022-09-22T23:01:15.290Z,2.07
2022-09-22T23:03:43.075Z,2.03
2022-09-22T23:06:20.671Z,2.60
2022-09-22T23:08:47.530Z,2.27
2022-09-22T23:11:15.931Z,2.60
2022-09-22T23:13:46.407Z,5.43
2022-09-22T23:16:13.876Z,2.23
2022-09-22T23:18:42.279Z,2.30
2022-09-22T23:21:10.459Z,2.23
2022-09-22T23:23:37.800Z,1.87
2022-09-22T23:26:05.375Z,1.83
2022-09-22T23:28:33.681Z,2.00
2022-09-22T23:31:07.051Z,1.90
2022-09-22T23:33:34.572Z,1.73
2022-09-22T23:36:01.272Z,3.97
2022-09-22T23:38:29.402Z,1.67
2022-09-22T23:40:56.765Z,2.50
2022-09-22T23:43:24.152Z,2.33
2022-09-22T23:45:51.219Z,1.63
2022-09-22T23:48:18.716Z,2.23
2022-09-22T23:50:46.368Z,3.13
2022-09-22T23:53:13.651Z,2.10
2022-09-22T23:55:40.215Z,3.23
2022-09-22T23:58:06.980Z,2.23
